Roxbury, NY

12:26 PM EDT on July 04, 2015 (GMT -0400)
Pleasant Valley | | Change Station
CLOSE
Current Station
Personal Weather Station
Location: Roxbury, NY
Elevation: 1793 ft
Nearby Weather Stations

Elev 1793 ft 42.31 °N, 74.57 °W | Updated 17 seconds ago

Rain
Rain
61.5 °F
Feels Like 61.5 °F
N
0.0
Wind Variable Wind from ENE
Gusts 0.0 mph

Today
High -- | Low -- °F
--% Chance of Precip.
Yesterday
High -- | Low -- °F
Precip. -- in
5:26 AM 8:38 PM
Waning Gibbous, 91% visible
Pressure 30.03 in
Visibility 7.0 miles
Clouds Scattered Clouds 1000 ft
Scattered Clouds 2800 ft
Overcast 5000 ft
Dew Point 61 °F
Humidity 97%
Rainfall 0.17 in
Snow Depth Not available.
UV 2.0 out of 12
Pollen 1.00 out of 12
Air Quality Not available.
Flu Activity Not available.
METAR KMSV 041615Z AUTO 28003KT 7SM SCT010 SCT028 OVC050 15/14 A3003 RMK AO1

More Conditions Fewer Conditions

Pressure 30.03 in
Visibility 7.0 miles
Clouds Scattered Clouds 1000 ft
Scattered Clouds 2800 ft
Overcast 5000 ft
Dew Point 61 °F
Humidity 97%
Rainfall 0.17 in
Snow Depth Not available.
UV 2.0 out of 12
Pollen 1.00 out of 12
Air Quality Not available.
Flu Activity Not available.
METAR KMSV 041615Z AUTO 28003KT 7SM SCT010 SCT028 OVC050 15/14 A3003 RMK AO1

More Conditions Fewer Conditions

10-Day Weather Forecast

×

Almanac

Astronomy

Jul. 04, 2015 Rise Set
Actual Time
Civil Twilight
Nautical Twilight
Astronomical Twilight
Moon
Length of Visible Light
Length of Day
Tomorrow will be .
, % of the Moon is Illuminated

Today's Extremes

State Highs State Lows

Community

WunderPhotos

Upload Photos

1,834,998 photos uploaded!

WunderBlogs® & News

Nearby

Air Quality

  Air Quality AQ Index Pollutant
Not available.

Snow Depth

Station Depth Elevation

Earthquake Activity

City Distance Mag. Time & Date
Minimum magnitude displayed is 2.5.

Coastal Water Temperatures

Place Temperature

Stations

Nearby Weather Stations

Station Location Temp. Windchill Dew Point Humidity Wind Precip. Elev Updated Type